createdAt,value
2022-08-18T00:00:57.323Z,24.98
2022-08-18T00:03:11.774Z,25.60
2022-08-18T00:05:30.728Z,25.45
2022-08-18T00:07:33.706Z,23.19
2022-08-18T00:09:36.896Z,24.34
2022-08-18T00:11:43.020Z,24.66
2022-08-18T00:13:44.964Z,24.47
2022-08-18T00:15:49.212Z,24.68
2022-08-18T00:17:51.690Z,25.09
2022-08-18T00:19:53.455Z,25.49
2022-08-18T00:21:55.083Z,25.03
2022-08-18T00:23:56.762Z,25.92
2022-08-18T00:25:59.606Z,25.41
2022-08-18T00:28:01.186Z,25.40
2022-08-18T00:30:05.874Z,26.41
2022-08-18T00:32:19.440Z,25.78
2022-08-18T00:34:21.080Z,26.20
2022-08-18T00:36:22.650Z,26.09
2022-08-18T00:38:25.526Z,25.56
2022-08-18T00:40:38.688Z,26.30
2022-08-18T00:42:47.782Z,25.77
2022-08-18T00:44:49.632Z,26.38
2022-08-18T00:46:51.212Z,26.68
2022-08-18T00:48:53.272Z,26.48
2022-08-18T00:51:02.173Z,26.36
2022-08-18T00:53:29.428Z,26.31
2022-08-18T00:55:33.493Z,26.06
2022-08-18T00:57:36.160Z,26.41
2022-08-18T00:59:42.483Z,26.29
2022-08-18T01:01:45.580Z,26.51
2022-08-18T01:03:53.991Z,26.53
2022-08-18T01:06:16.306Z,26.26
2022-08-18T01:08:18.719Z,25.95
2022-08-18T01:10:33.343Z,26.68
2022-08-18T01:12:45.575Z,24.89
2022-08-18T01:14:48.367Z,26.39
2022-08-18T01:17:09.765Z,26.19
2022-08-18T01:19:29.848Z,26.22
2022-08-18T01:21:53.628Z,26.23
2022-08-18T01:23:56.160Z,26.65
2022-08-18T01:26:00.795Z,26.94
2022-08-18T01:28:03.488Z,26.85
2022-08-18T01:30:10.541Z,25.40
2022-08-18T01:32:19.610Z,25.08
2022-08-18T01:34:24.805Z,24.99
2022-08-18T01:36:28.528Z,25.66
2022-08-18T01:38:32.249Z,25.15
2022-08-18T01:41:21.802Z,24.10
2022-08-18T01:42:56.559Z,25.28
2022-08-18T01:44:58.192Z,24.03
2022-08-18T01:46:59.787Z,24.41
2022-08-18T01:49:03.644Z,25.24
2022-08-18T01:51:09.935Z,24.81
2022-08-18T01:53:11.836Z,24.31
2022-08-18T01:55:14.662Z,23.90
2022-08-18T01:57:17.355Z,24.29
2022-08-18T01:59:19.119Z,24.81
2022-08-18T02:01:23.989Z,24.26
2022-08-18T02:03:42.914Z,23.12
2022-08-18T02:05:49.630Z,23.13
2022-08-18T02:07:54.200Z,24.27
2022-08-18T02:09:56.270Z,23.85
2022-08-18T02:12:01.267Z,24.62
2022-08-18T02:14:03.210Z,25.36
2022-08-18T02:16:05.302Z,25.69
2022-08-18T02:18:07.011Z,25.68
2022-08-18T02:20:11.703Z,25.77
2022-08-18T02:22:18.097Z,24.84
2022-08-18T02:24:19.816Z,23.57
2022-08-18T02:26:23.343Z,25.54
2022-08-18T02:28:28.796Z,25.59
2022-08-18T02:30:34.573Z,25.59
2022-08-18T02:32:36.238Z,26.46
2022-08-18T02:34:37.907Z,26.13
2022-08-18T02:36:39.667Z,25.55
2022-08-18T02:38:42.953Z,26.76
2022-08-18T02:40:46.543Z,26.96
2022-08-18T02:42:48.566Z,26.37
2022-08-18T02:44:50.376Z,24.65
2022-08-18T02:46:54.090Z,26.07
2022-08-18T02:48:56.855Z,26.83
2022-08-18T02:51:01.307Z,26.68
2022-08-18T02:53:03.052Z,26.26
2022-08-18T02:55:06.219Z,26.61
2022-08-18T02:57:10.797Z,27.06
2022-08-18T02:59:18.124Z,26.58
2022-08-18T03:01:21.837Z,26.57
2022-08-18T03:03:23.460Z,26.53
2022-08-18T03:05:25.043Z,26.58
2022-08-18T03:07:26.703Z,27.26
2022-08-18T03:09:29.699Z,26.83
2022-08-18T03:11:31.970Z,26.95
2022-08-18T03:13:33.705Z,26.83
2022-08-18T03:15:35.285Z,25.93
2022-08-18T03:17:37.911Z,25.10
2022-08-18T03:19:39.582Z,24.24
2022-08-18T03:21:41.148Z,25.14
2022-08-18T03:24:01.531Z,26.52
2022-08-18T03:26:04.514Z,25.81
2022-08-18T03:28:07.064Z,24.66
2022-08-18T03:30:11.252Z,25.82
2022-08-18T03:32:13.309Z,25.59
2022-08-18T03:34:15.979Z,26.60
2022-08-18T03:36:20.777Z,26.95
2022-08-18T03:38:23.631Z,25.78
2022-08-18T03:40:25.213Z,25.64
2022-08-18T03:42:26.959Z,26.49
2022-08-18T03:44:34.322Z,26.12
2022-08-18T03:46:35.952Z,27.08
2022-08-18T03:48:40.891Z,26.76
2022-08-18T03:50:43.145Z,26.90
2022-08-18T03:52:48.587Z,27.05
2022-08-18T03:54:50.257Z,26.95
2022-08-18T03:56:51.864Z,26.13
2022-08-18T03:58:57.668Z,26.11
2022-08-18T04:00:59.456Z,26.80
2022-08-18T04:03:03.096Z,26.51
2022-08-18T04:05:06.359Z,26.85
2022-08-18T04:07:10.974Z,26.48
2022-08-18T04:09:14.866Z,26.64
2022-08-18T04:11:16.797Z,27.06
2022-08-18T04:13:18.377Z,27.20
2022-08-18T04:15:20.048Z,26.21
2022-08-18T04:17:25.307Z,25.86
2022-08-18T04:19:28.189Z,26.29
2022-08-18T04:21:33.025Z,26.37
2022-08-18T04:23:43.449Z,26.35
2022-08-18T04:25:45.838Z,26.21
2022-08-18T04:27:47.608Z,26.51
2022-08-18T04:29:49.939Z,26.89
2022-08-18T04:31:52.422Z,26.27
2022-08-18T04:33:55.217Z,26.44
2022-08-18T04:35:56.884Z,26.15
2022-08-18T04:37:58.467Z,26.14
2022-08-18T04:40:00.187Z,26.47
2022-08-18T04:42:04.442Z,25.87
2022-08-18T04:44:08.925Z,25.85
2022-08-18T04:46:11.486Z,26.04
2022-08-18T04:48:13.401Z,25.96
2022-08-18T04:50:15.255Z,26.02
2022-08-18T04:52:39.828Z,25.92
2022-08-18T04:54:43.251Z,25.33
2022-08-18T04:56:45.109Z,25.53
2022-08-18T04:58:51.193Z,25.76
2022-08-18T05:02:24.423Z,25.67
2022-08-18T05:04:28.798Z,25.83
2022-08-18T05:06:31.458Z,26.70
2022-08-18T05:08:33.110Z,26.19
2022-08-18T05:10:35.660Z,26.45
2022-08-18T05:12:37.464Z,26.21
2022-08-18T05:14:44.611Z,26.79
2022-08-18T05:16:48.673Z,26.64
2022-08-18T05:18:52.038Z,25.57
2022-08-18T05:20:55.954Z,25.85
2022-08-18T05:22:58.435Z,26.20
2022-08-18T05:25:00.410Z,25.78
2022-08-18T05:27:03.270Z,25.68
2022-08-18T05:29:18.003Z,26.16
2022-08-18T05:31:24.081Z,26.30
2022-08-18T05:33:25.838Z,26.04
2022-08-18T05:35:36.176Z,26.40
2022-08-18T05:38:12.047Z,26.40
2022-08-18T05:40:15.111Z,25.99
2022-08-18T05:42:20.161Z,25.08
2022-08-18T05:44:36.051Z,25.29
2022-08-18T05:46:46.466Z,25.36
2022-08-18T05:48:48.079Z,24.81
2022-08-18T05:50:51.240Z,26.24
2022-08-18T05:52:58.161Z,25.25
2022-08-18T05:55:49.837Z,24.68
2022-08-18T05:57:58.085Z,25.36
2022-08-18T06:00:00.473Z,25.38
2022-08-18T06:02:16.973Z,23.51
2022-08-18T06:04:27.934Z,24.59
2022-08-18T06:06:31.281Z,25.90
2022-08-18T06:08:40.751Z,25.84
2022-08-18T06:10:47.361Z,25.76
2022-08-18T06:12:53.590Z,25.70
2022-08-18T06:15:20.130Z,26.37
2022-08-18T06:17:40.335Z,25.84
2022-08-18T06:19:57.172Z,25.63
2022-08-18T06:22:01.525Z,24.28
2022-08-18T06:24:05.999Z,25.95
2022-08-18T06:26:26.243Z,26.33
2022-08-18T06:28:55.355Z,26.00
2022-08-18T06:31:05.563Z,25.10
2022-08-18T06:33:21.808Z,25.60
2022-08-18T06:35:34.249Z,25.44
2022-08-18T06:38:13.037Z,24.75
2022-08-18T06:40:14.867Z,25.42
2022-08-18T06:42:25.969Z,25.20
2022-08-18T06:44:36.011Z,25.64
2022-08-18T06:46:44.858Z,24.58
2022-08-18T06:49:03.646Z,25.78
2022-08-18T06:51:07.573Z,25.93
2022-08-18T06:53:26.987Z,25.99
2022-08-18T06:55:40.012Z,25.41
2022-08-18T06:58:00.072Z,25.47
2022-08-18T07:00:05.501Z,24.80
2022-08-18T07:02:41.723Z,23.86
2022-08-18T07:04:59.838Z,24.84
2022-08-18T07:07:14.824Z,25.65
2022-08-18T07:09:25.781Z,26.16
2022-08-18T07:11:31.149Z,26.21
2022-08-18T07:13:40.412Z,26.59
2022-08-18T07:15:45.728Z,25.67
2022-08-18T07:17:49.004Z,25.14
2022-08-18T07:20:01.637Z,24.94
2022-08-18T07:22:39.044Z,25.40
2022-08-18T07:24:46.828Z,25.16
2022-08-18T07:27:00.593Z,24.87
2022-08-18T07:29:14.815Z,24.62
2022-08-18T07:31:28.108Z,24.46
2022-08-18T07:33:30.778Z,24.75
2022-08-18T07:35:45.374Z,25.25
2022-08-18T07:37:54.769Z,25.14
2022-08-18T07:40:02.035Z,25.58
2022-08-18T07:42:33.066Z,25.62
2022-08-18T07:44:45.274Z,25.90
2022-08-18T07:47:00.640Z,25.23
2022-08-18T07:49:05.387Z,25.19
2022-08-18T07:51:21.843Z,26.23
2022-08-18T07:53:38.425Z,24.33
2022-08-18T07:55:44.126Z,24.09
2022-08-18T07:58:20.350Z,24.23
2022-08-18T08:03:23.449Z,23.89
2022-08-18T08:05:35.138Z,24.37
2022-08-18T08:08:12.252Z,23.28
2022-08-18T08:10:29.106Z,23.98
2022-08-18T08:12:42.274Z,25.00
2022-08-18T08:14:47.989Z,25.14
2022-08-18T08:16:51.269Z,25.42
2022-08-18T08:19:49.378Z,24.46
2022-08-18T08:22:12.877Z,25.56
2022-08-18T08:24:34.806Z,24.54
2022-08-18T08:26:51.964Z,24.48
2022-08-18T08:29:11.540Z,25.09
2022-08-18T08:31:37.159Z,25.70
2022-08-18T08:33:52.317Z,26.31
2022-08-18T08:36:18.526Z,26.83
2022-08-18T08:38:42.966Z,26.68
2022-08-18T08:40:49.175Z,26.61
2022-08-18T08:43:15.777Z,25.22
2022-08-18T08:45:42.424Z,26.53
2022-08-18T08:47:49.752Z,25.92
2022-08-18T08:50:00.562Z,25.86
2022-08-18T08:52:19.089Z,26.53
2022-08-18T08:54:26.373Z,26.65
2022-08-18T08:56:33.359Z,26.88
2022-08-18T08:58:57.160Z,27.00
2022-08-18T09:00:59.697Z,26.50
2022-08-18T09:03:13.064Z,26.78
2022-08-18T09:05:20.022Z,26.78
2022-08-18T09:07:47.299Z,26.45
2022-08-18T09:10:04.816Z,26.61
2022-08-18T09:12:49.856Z,26.67
2022-08-18T09:15:19.209Z,26.83
2022-08-18T09:18:00.053Z,27.08
2022-08-18T09:20:23.396Z,28.00
2022-08-18T09:22:49.210Z,27.89
2022-08-18T09:24:53.209Z,27.62
2022-08-18T09:27:03.896Z,27.95
2022-08-18T09:29:23.523Z,27.85
2022-08-18T09:31:27.759Z,28.00
2022-08-18T09:33:45.797Z,27.97
2022-08-18T09:35:59.533Z,27.45
2022-08-18T09:38:29.108Z,27.29
2022-08-18T09:41:02.683Z,27.87
2022-08-18T09:43:37.269Z,28.24
2022-08-18T09:45:49.527Z,27.36
2022-08-18T09:47:57.491Z,28.24
2022-08-18T09:50:06.534Z,28.44
2022-08-18T09:52:24.402Z,28.95
2022-08-18T09:54:31.035Z,28.29
2022-08-18T09:56:53.830Z,27.74
2022-08-18T09:59:02.061Z,27.71
2022-08-18T10:01:32.439Z,28.16
2022-08-18T10:03:35.024Z,28.26
2022-08-18T10:05:36.705Z,26.85
2022-08-18T10:07:44.119Z,27.29
2022-08-18T10:09:45.774Z,27.99
2022-08-18T10:12:02.418Z,27.93
2022-08-18T10:14:24.845Z,28.43
2022-08-18T10:17:21.691Z,28.43
2022-08-18T10:19:39.644Z,25.45
2022-08-18T10:21:58.234Z,26.97
2022-08-18T10:26:54.123Z,28.48
2022-08-18T10:29:00.634Z,28.47
2022-08-18T10:31:10.115Z,28.06
2022-08-18T10:33:18.228Z,28.23
2022-08-18T10:35:35.345Z,28.40
2022-08-18T10:37:44.986Z,27.78
2022-08-18T10:39:50.360Z,28.62
2022-08-18T10:42:22.138Z,28.36
2022-08-18T10:44:30.904Z,28.37
2022-08-18T10:46:46.428Z,28.52
2022-08-18T10:49:07.568Z,27.90
2022-08-18T10:51:27.456Z,28.04
2022-08-18T10:53:47.407Z,28.43
2022-08-18T10:56:11.510Z,28.15
2022-08-18T10:58:24.029Z,28.79
2022-08-18T11:03:51.289Z,27.60
2022-08-18T11:06:02.529Z,27.79
2022-08-18T11:08:16.035Z,28.14
2022-08-18T11:13:12.400Z,28.42
2022-08-18T11:15:31.741Z,28.79
2022-08-18T11:18:14.487Z,28.26
2022-08-18T11:20:19.229Z,27.50
2022-08-18T11:22:31.533Z,28.15
2022-08-18T11:24:35.742Z,28.69
2022-08-18T11:26:53.059Z,28.30
2022-08-18T11:28:55.222Z,27.99
2022-08-18T11:30:57.825Z,29.05
2022-08-18T11:33:02.575Z,28.33
2022-08-18T11:35:10.871Z,27.92
2022-08-18T11:37:27.085Z,28.43
2022-08-18T11:39:38.139Z,28.93
2022-08-18T11:41:48.222Z,29.16
2022-08-18T11:43:57.899Z,28.96
2022-08-18T11:46:11.913Z,28.95
2022-08-18T11:50:54.336Z,27.93
2022-08-18T11:52:57.717Z,27.84
2022-08-18T11:55:14.384Z,28.04
2022-08-18T12:00:43.028Z,28.55
2022-08-18T12:02:45.841Z,29.20
2022-08-18T12:05:03.526Z,28.02
2022-08-18T12:10:17.869Z,29.19
2022-08-18T12:12:32.344Z,28.66
2022-08-18T12:14:52.079Z,28.67
2022-08-18T12:16:54.948Z,29.04
2022-08-18T12:18:57.496Z,28.83
2022-08-18T12:20:59.508Z,28.95
2022-08-18T12:23:05.512Z,28.61
2022-08-18T12:25:12.286Z,28.62
2022-08-18T12:27:22.240Z,27.96
2022-08-18T12:29:29.471Z,29.13
2022-08-18T12:31:42.724Z,29.01
2022-08-18T12:34:01.240Z,29.07
2022-08-18T12:36:04.594Z,28.41
2022-08-18T12:38:12.730Z,29.66
2022-08-18T12:40:15.917Z,29.98
2022-08-18T12:42:18.029Z,29.52
2022-08-18T12:44:21.570Z,29.48
2022-08-18T12:46:23.701Z,30.03
2022-08-18T12:48:30.298Z,28.93
2022-08-18T12:50:36.269Z,29.04
2022-08-18T12:52:41.136Z,28.97
2022-08-18T12:54:55.171Z,29.53
2022-08-18T12:56:58.223Z,29.63
2022-08-18T12:59:04.040Z,30.25
2022-08-18T13:01:07.139Z,29.21
2022-08-18T13:03:09.132Z,29.62
2022-08-18T13:05:11.752Z,30.70
2022-08-18T13:07:15.807Z,30.35
2022-08-18T13:09:34.862Z,29.91
2022-08-18T13:11:43.246Z,29.77
2022-08-18T13:13:45.803Z,28.77
2022-08-18T13:15:58.592Z,29.85
2022-08-18T13:18:03.386Z,29.27
2022-08-18T13:20:10.602Z,28.84
2022-08-18T13:22:15.013Z,29.76
2022-08-18T13:24:22.139Z,28.91
2022-08-18T13:26:31.400Z,29.29
2022-08-18T13:28:36.180Z,28.89
2022-08-18T13:30:56.176Z,30.03
2022-08-18T13:33:05.274Z,29.00
2022-08-18T13:35:13.575Z,29.64
2022-08-18T13:37:15.400Z,29.36
2022-08-18T13:39:19.677Z,29.33
2022-08-18T13:43:32.621Z,29.90
2022-08-18T13:45:36.164Z,29.31
2022-08-18T13:47:39.554Z,29.10
2022-08-18T13:49:43.586Z,29.57
2022-08-18T13:52:00.925Z,29.81
2022-08-18T13:54:30.833Z,29.14
2022-08-18T13:56:31.705Z,29.73
2022-08-18T13:58:33.462Z,30.01
2022-08-18T14:00:35.368Z,29.35
2022-08-18T14:02:37.219Z,29.70
2022-08-18T14:04:38.915Z,30.09
2022-08-18T14:06:51.211Z,29.90
2022-08-18T14:08:59.285Z,30.01
2022-08-18T14:11:03.412Z,29.64
2022-08-18T14:13:09.491Z,29.38
2022-08-18T14:15:26.624Z,29.39
2022-08-18T14:17:28.710Z,29.71
2022-08-18T14:19:48.901Z,29.78
2022-08-18T14:22:11.775Z,29.48
2022-08-18T14:24:31.843Z,28.95
2022-08-18T14:26:51.244Z,28.86
2022-08-18T14:28:52.903Z,29.01
2022-08-18T14:30:55.288Z,28.53
2022-08-18T14:32:59.151Z,28.60
2022-08-18T14:35:21.807Z,28.81
2022-08-18T14:37:24.844Z,28.78
2022-08-18T14:39:27.642Z,29.85
2022-08-18T14:41:30.072Z,29.37
2022-08-18T14:44:10.877Z,29.00
2022-08-18T14:45:58.090Z,29.05
2022-08-18T14:48:00.723Z,28.75
2022-08-18T14:50:03.548Z,29.43
2022-08-18T14:52:06.021Z,29.04
2022-08-18T14:54:17.956Z,28.44
2022-08-18T14:56:19.723Z,29.23
2022-08-18T14:58:29.739Z,29.39
2022-08-18T15:00:31.557Z,29.03
2022-08-18T15:02:33.272Z,29.32
2022-08-18T15:04:38.463Z,29.56
2022-08-18T15:06:56.288Z,28.36
2022-08-18T15:08:58.701Z,29.05
2022-08-18T15:11:00.367Z,29.77
2022-08-18T15:13:03.213Z,29.15
2022-08-18T15:15:12.395Z,29.09
2022-08-18T15:17:19.781Z,28.25
2022-08-18T15:19:59.086Z,29.74
2022-08-18T15:22:03.057Z,29.84
2022-08-18T15:24:23.842Z,29.21
2022-08-18T15:26:26.360Z,30.09
2022-08-18T15:28:28.071Z,29.77
2022-08-18T15:30:29.759Z,29.65
2022-08-18T15:32:31.883Z,30.16
2022-08-18T15:34:46.763Z,29.08
2022-08-18T15:36:49.483Z,29.74
2022-08-18T15:38:51.567Z,29.19
2022-08-18T15:40:59.617Z,29.28
2022-08-18T15:43:09.504Z,29.16
2022-08-18T15:45:13.865Z,30.26
2022-08-18T15:47:20.842Z,30.04
2022-08-18T15:49:24.016Z,29.23
2022-08-18T15:51:25.904Z,29.68
2022-08-18T15:53:39.935Z,30.39
2022-08-18T15:55:46.784Z,30.52
2022-08-18T15:57:58.075Z,30.17
2022-08-18T16:00:03.746Z,30.33
2022-08-18T16:02:05.611Z,30.45
2022-08-18T16:06:20.490Z,30.90
2022-08-18T16:08:25.334Z,30.18
2022-08-18T16:10:32.386Z,30.13
2022-08-18T16:12:34.142Z,29.25
2022-08-18T16:14:41.548Z,29.51
2022-08-18T16:16:43.511Z,30.68
2022-08-18T16:18:46.218Z,30.72
2022-08-18T16:20:48.637Z,30.81
2022-08-18T16:22:54.684Z,31.15
2022-08-18T16:24:56.455Z,30.13
2022-08-18T16:26:58.048Z,29.92
2022-08-18T16:29:01.761Z,31.50
2022-08-18T16:31:04.179Z,30.05
2022-08-18T16:33:07.047Z,29.75
2022-08-18T16:35:09.281Z,29.62
2022-08-18T16:37:11.093Z,30.41
2022-08-18T16:39:12.721Z,30.32
2022-08-18T16:41:15.852Z,29.91
2022-08-18T16:43:17.578Z,29.79
2022-08-18T16:45:19.344Z,30.03
2022-08-18T16:47:20.913Z,30.17
2022-08-18T16:49:22.617Z,30.04
2022-08-18T16:51:27.741Z,29.99
2022-08-18T16:53:40.141Z,31.04
2022-08-18T16:55:43.384Z,30.79
2022-08-18T16:58:03.921Z,30.34
2022-08-18T17:00:25.234Z,31.03
2022-08-18T17:02:45.497Z,30.52
2022-08-18T17:04:47.178Z,30.37
2022-08-18T17:06:49.608Z,30.34
2022-08-18T17:08:51.278Z,29.77
2022-08-18T17:10:52.891Z,29.89
2022-08-18T17:12:54.476Z,30.65
2022-08-18T17:14:56.648Z,31.06
2022-08-18T17:17:00.258Z,30.51
2022-08-18T17:19:02.944Z,30.56
2022-08-18T17:21:07.032Z,30.90
2022-08-18T17:23:08.877Z,30.70
2022-08-18T17:25:13.689Z,30.58
2022-08-18T17:27:26.903Z,31.05
2022-08-18T17:29:35.522Z,29.82
2022-08-18T17:31:43.692Z,30.38
2022-08-18T17:33:45.673Z,29.92
2022-08-18T17:35:47.769Z,30.77
2022-08-18T17:37:59.269Z,30.89
2022-08-18T17:40:10.845Z,30.72
2022-08-18T17:42:29.147Z,30.54
2022-08-18T17:44:31.948Z,30.77
2022-08-18T17:46:40.305Z,31.18
2022-08-18T17:48:47.831Z,31.61
2022-08-18T17:51:17.285Z,31.16
2022-08-18T17:53:21.443Z,31.40
2022-08-18T17:55:35.713Z,31.43
2022-08-18T17:57:58.553Z,30.96
2022-08-18T18:00:16.478Z,31.55
2022-08-18T18:02:29.536Z,30.92
2022-08-18T18:04:32.091Z,31.28
2022-08-18T18:06:40.061Z,31.44
2022-08-18T18:08:48.658Z,31.42
2022-08-18T18:11:04.359Z,31.08
2022-08-18T18:13:33.617Z,31.55
2022-08-18T18:15:39.941Z,30.98
2022-08-18T18:17:42.966Z,30.73
2022-08-18T18:19:47.959Z,30.88
2022-08-18T18:22:04.777Z,30.79
2022-08-18T18:24:06.306Z,30.59
2022-08-18T18:26:26.223Z,30.80
2022-08-18T18:28:31.574Z,30.43
2022-08-18T18:30:33.473Z,30.18
2022-08-18T18:32:59.506Z,30.03
2022-08-18T18:35:09.764Z,30.98
2022-08-18T18:37:35.064Z,31.06
2022-08-18T18:39:36.818Z,31.29
2022-08-18T18:41:40.609Z,31.06
2022-08-18T18:43:46.683Z,30.99
2022-08-18T18:46:18.798Z,30.49
2022-08-18T18:48:48.273Z,31.06
2022-08-18T18:50:56.105Z,31.16
2022-08-18T18:52:58.109Z,31.02
2022-08-18T18:55:06.890Z,30.62
2022-08-18T18:57:19.244Z,30.71
2022-08-18T18:59:48.944Z,30.18
2022-08-18T19:02:01.156Z,30.09
2022-08-18T19:04:32.214Z,30.46
2022-08-18T19:06:51.264Z,30.44
2022-08-18T19:09:13.873Z,30.87
2022-08-18T19:11:32.951Z,30.64
2022-08-18T19:13:54.319Z,30.59
2022-08-18T19:16:00.251Z,30.20
2022-08-18T19:18:23.025Z,30.61
2022-08-18T19:20:39.547Z,30.23
2022-08-18T19:22:50.074Z,29.96
2022-08-18T19:25:08.725Z,30.02
2022-08-18T19:27:34.129Z,30.16
2022-08-18T19:29:41.636Z,29.72
2022-08-18T19:31:49.184Z,29.98
2022-08-18T19:33:55.450Z,30.16
2022-08-18T19:36:20.882Z,30.04
2022-08-18T19:38:30.053Z,30.06
2022-08-18T19:41:00.358Z,30.31
2022-08-18T19:43:11.486Z,30.61
2022-08-18T19:45:43.973Z,30.35
2022-08-18T19:47:55.978Z,30.15
2022-08-18T19:50:34.202Z,30.30
2022-08-18T19:52:54.552Z,30.01
2022-08-18T19:55:33.058Z,30.14
2022-08-18T19:58:02.113Z,30.34
2022-08-18T20:00:22.892Z,30.24
2022-08-18T20:02:25.368Z,29.98
2022-08-18T20:04:58.343Z,30.34
2022-08-18T20:07:38.789Z,30.23
2022-08-18T20:09:53.258Z,29.56
2022-08-18T20:12:26.392Z,29.57
2022-08-18T20:14:28.615Z,29.63
2022-08-18T20:16:44.019Z,29.84
2022-08-18T20:18:49.544Z,29.91
2022-08-18T20:21:13.819Z,29.99
2022-08-18T20:23:35.005Z,29.63
2022-08-18T20:25:43.478Z,29.74
2022-08-18T20:27:51.491Z,29.73
2022-08-18T20:30:22.947Z,29.65
2022-08-18T20:32:35.865Z,29.99
2022-08-18T20:34:37.488Z,29.40
2022-08-18T20:36:41.705Z,29.81
2022-08-18T20:38:50.389Z,29.88
2022-08-18T20:40:52.377Z,29.56
2022-08-18T20:42:56.430Z,28.99
2022-08-18T20:45:20.848Z,29.81
2022-08-18T20:47:25.188Z,29.66
2022-08-18T20:49:35.719Z,29.79
2022-08-18T20:51:52.248Z,29.74
2022-08-18T20:54:13.414Z,29.89
2022-08-18T20:56:43.842Z,30.15
2022-08-18T20:59:09.064Z,29.82
2022-08-18T21:01:13.733Z,29.46
2022-08-18T21:03:16.869Z,29.20
2022-08-18T21:05:33.076Z,29.86
2022-08-18T21:07:39.196Z,29.39
2022-08-18T21:09:50.523Z,28.51
2022-08-18T21:11:54.023Z,28.66
2022-08-18T21:13:58.645Z,28.31
2022-08-18T21:16:05.914Z,28.45
2022-08-18T21:18:19.762Z,28.58
2022-08-18T21:20:24.252Z,28.57
2022-08-18T21:22:27.251Z,28.79
2022-08-18T21:24:40.702Z,28.14
2022-08-18T21:26:46.413Z,28.37
2022-08-18T21:29:11.159Z,28.90
2022-08-18T21:31:43.985Z,28.07
2022-08-18T21:33:53.683Z,28.49
2022-08-18T21:35:55.557Z,28.33
2022-08-18T21:38:04.509Z,28.32
2022-08-18T21:40:06.673Z,27.67
2022-08-18T21:42:18.872Z,28.18
2022-08-18T21:44:44.412Z,28.17
2022-08-18T21:46:47.049Z,28.20
2022-08-18T21:48:53.913Z,28.79
2022-08-18T21:50:58.818Z,28.39
2022-08-18T21:53:16.411Z,28.14
2022-08-18T21:55:41.678Z,28.35
2022-08-18T21:57:50.036Z,28.37
2022-08-18T22:00:19.482Z,28.29
2022-08-18T22:02:21.915Z,28.16
2022-08-18T22:04:46.066Z,28.66
2022-08-18T22:06:50.806Z,28.87
2022-08-18T22:09:26.574Z,28.59
2022-08-18T22:12:00.953Z,28.31
2022-08-18T22:14:54.621Z,28.40
2022-08-18T22:17:28.350Z,28.50
2022-08-18T22:19:29.977Z,28.83
2022-08-18T22:22:22.568Z,29.15
2022-08-18T22:24:35.683Z,28.46
2022-08-18T22:26:38.294Z,28.58
2022-08-18T22:29:08.359Z,28.75
2022-08-18T22:31:10.041Z,29.01
2022-08-18T22:33:11.655Z,29.07
2022-08-18T22:35:13.274Z,28.87
2022-08-18T22:37:23.816Z,28.86
2022-08-18T22:39:31.283Z,28.88
2022-08-18T22:41:34.127Z,28.58
2022-08-18T22:43:36.935Z,27.89
2022-08-18T22:45:38.515Z,28.52
2022-08-18T22:47:45.117Z,28.56
2022-08-18T22:49:47.371Z,28.38
2022-08-18T22:51:51.256Z,28.71
2022-08-18T22:53:53.777Z,28.66
2022-08-18T22:55:57.445Z,29.22
2022-08-18T22:57:59.886Z,29.15
2022-08-18T23:00:02.680Z,28.97
2022-08-18T23:02:05.445Z,28.42
2022-08-18T23:04:07.685Z,28.31
2022-08-18T23:06:09.996Z,27.68
2022-08-18T23:08:11.585Z,28.47
2022-08-18T23:10:14.213Z,28.62
2022-08-18T23:12:16.322Z,28.70
2022-08-18T23:14:18.743Z,28.50
2022-08-18T23:16:31.360Z,28.48
2022-08-18T23:18:33.909Z,28.10
2022-08-18T23:20:37.434Z,26.87
2022-08-18T23:22:43.666Z,28.20
2022-08-18T23:24:45.339Z,27.77
2022-08-18T23:26:47.321Z,27.89
2022-08-18T23:28:52.571Z,28.24
2022-08-18T23:30:56.775Z,27.62
2022-08-18T23:32:58.421Z,27.95
2022-08-18T23:35:00.898Z,28.18
2022-08-18T23:37:04.562Z,27.90
2022-08-18T23:39:06.744Z,27.96
2022-08-18T23:41:11.798Z,28.37
2022-08-18T23:43:14.334Z,27.94
2022-08-18T23:45:15.906Z,28.18
2022-08-18T23:47:20.978Z,28.37
2022-08-18T23:49:23.460Z,28.35
2022-08-18T23:51:30.656Z,27.91
2022-08-18T23:53:32.888Z,27.22
2022-08-18T23:55:34.662Z,27.39
2022-08-18T23:57:36.609Z,28.19
2022-08-18T23:59:38.244Z,28.50
